Time;durP1;ratioP1;P1;durP2;ratioP2;P2;SDS_P1;SDS_P2;PMS_P1;PMS_P2;Temp;Humidity;BMP_temperature;BMP_pressure;BME280_temperature;BME280_humidity;BME280_pressure;Samples;Min_cycle;Max_cycle;Signal;HPM_P1;HPM_P2
2021/12/22 00:02:23;;;;;;;13.07;7.65;;;-4.80;99.90;;;;;;4936093;29;20469;-79
2021/12/22 00:04:50;;;;;;;13.40;8.85;;;-4.80;99.90;;;;;;4953706;29;20035;-79
2021/12/22 00:07:16;;;;;;;12.77;9.05;;;-4.90;99.90;;;;;;4944211;29;20032;-78
2021/12/22 00:09:43;;;;;;;9.20;7.60;;;-4.90;99.90;;;;;;4945910;29;20035;-78
2021/12/22 00:12:10;;;;;;;12.35;7.72;;;-5.00;99.90;;;;;;4944161;29;20039;-78
2021/12/22 00:14:37;;;;;;;8.93;7.82;;;-5.10;99.90;;;;;;4935508;29;20454;-78
2021/12/22 00:17:03;;;;;;;17.00;7.88;;;-5.10;99.90;;;;;;4947691;29;20389;-82
2021/12/22 00:19:30;;;;;;;12.90;7.40;;;-5.20;99.90;;;;;;4937444;29;20035;-78
2021/12/22 00:21:56;;;;;;;10.98;7.95;;;-5.40;99.90;;;;;;4938106;29;20499;-78
2021/12/22 00:24:22;;;;;;;11.85;8.60;;;-5.50;99.90;;;;;;4942880;29;20042;-78
2021/12/22 00:26:48;;;;;;;9.75;8.10;;;-5.50;99.90;;;;;;4951368;29;20470;-78
2021/12/22 00:29:16;;;;;;;9.90;7.55;;;-5.40;99.90;;;;;;4945989;29;20396;-78
2021/12/22 00:31:56;;;;;;;8.25;6.30;;;-5.40;99.90;;;;;;4936055;29;20063;-78
2021/12/22 00:34:25;;;;;;;11.73;7.32;;;-5.40;99.90;;;;;;4938234;29;20075;-77
2021/12/22 00:36:51;;;;;;;10.27;7.70;;;-5.50;99.90;;;;;;4935187;29;20501;-78
2021/12/22 00:39:17;;;;;;;10.02;7.00;;;-5.50;99.90;;;;;;4956076;29;20035;-78
2021/12/22 00:41:44;;;;;;;10.68;7.63;;;-5.40;99.90;;;;;;4938287;29;20038;-78
2021/12/22 00:44:12;;;;;;;11.05;8.77;;;-5.30;99.90;;;;;;4936803;29;20043;-79
2021/12/22 00:46:38;;;;;;;11.98;8.63;;;-5.40;99.90;;;;;;4947601;29;20027;-78
2021/12/22 00:49:04;;;;;;;10.43;7.32;;;-5.60;99.90;;;;;;4955555;29;20036;-81
2021/12/22 00:51:31;;;;;;;12.30;7.53;;;-5.70;99.90;;;;;;4936355;29;20408;-78
2021/12/22 00:53:57;;;;;;;13.45;8.63;;;-5.60;99.90;;;;;;4920981;29;20043;-78
2021/12/22 00:56:23;;;;;;;10.32;8.50;;;-5.50;99.90;;;;;;4937078;29;20052;-78
2021/12/22 00:58:49;;;;;;;17.38;10.73;;;-5.60;99.90;;;;;;4937416;29;20047;-78
2021/12/22 01:01:15;;;;;;;22.55;11.63;;;-5.70;99.90;;;;;;4936381;29;20036;-78
2021/12/22 01:03:41;;;;;;;10.60;7.72;;;-5.80;99.90;;;;;;4937510;29;20035;-78
2021/12/22 01:06:08;;;;;;;9.77;6.97;;;-5.70;99.90;;;;;;4937414;29;20035;-78
2021/12/22 01:08:34;;;;;;;11.32;6.75;;;-5.70;99.90;;;;;;4954948;29;20031;-77
2021/12/22 01:11:01;;;;;;;11.20;7.22;;;-5.80;99.90;;;;;;4951714;29;20496;-78
2021/12/22 01:13:29;;;;;;;8.45;6.28;;;-5.90;99.90;;;;;;4919795;29;20042;-77
2021/12/22 01:15:55;;;;;;;9.93;7.38;;;-5.90;99.90;;;;;;4936336;29;20044;-78
2021/12/22 01:18:30;;;;;;;14.43;7.63;;;-5.90;99.90;;;;;;4937282;29;20030;-78
2021/12/22 01:24:12;;;;;;;14.38;8.93;;;-6.00;99.90;;;;;;4895759;29;20036;-78
2021/12/22 01:26:44;;;;;;;17.60;7.85;;;-6.00;99.90;;;;;;4896268;29;20388;-77
2021/12/22 01:29:14;;;;;;;10.23;7.22;;;-6.10;99.90;;;;;;4895449;29;20045;-78
2021/12/22 01:31:42;;;;;;;13.98;7.25;;;-6.00;99.90;;;;;;4895782;29;20045;-78
2021/12/22 01:34:09;;;;;;;10.07;7.10;;;-6.00;99.90;;;;;;4895013;29;20043;-79
2021/12/22 01:36:35;;;;;;;8.55;7.00;;;-6.00;99.90;;;;;;4895741;29;20075;-78
2021/12/22 01:39:03;;;;;;;9.55;7.00;;;-6.10;99.90;;;;;;4880435;29;20490;-78
2021/12/22 01:41:29;;;;;;;9.23;6.68;;;-6.00;99.90;;;;;;4895084;29;20055;-77
2021/12/22 01:43:55;;;;;;;11.90;7.85;;;-5.90;99.90;;;;;;4895760;29;20036;-77
2021/12/22 01:49:17;;;;;;;13.45;6.40;;;-5.90;99.90;;;;;;4895495;29;20071;-78
2021/12/22 01:52:06;;;;;;;10.30;6.25;;;-6.00;99.90;;;;;;4895604;29;20037;-78
2021/12/22 01:55:05;;;;;;;14.32;10.88;;;-5.80;99.90;;;;;;4910177;29;20062;-78
2021/12/22 01:57:42;;;;;;;8.48;6.75;;;-5.80;99.90;;;;;;4930480;29;20508;-78
2021/12/22 02:00:09;;;;;;;9.75;6.97;;;-6.00;99.90;;;;;;4944832;29;20035;-78
2021/12/22 02:02:40;;;;;;;9.52;5.97;;;-6.10;99.90;;;;;;4942608;28;20036;-78
2021/12/22 02:05:06;;;;;;;14.38;8.80;;;-6.10;99.90;;;;;;4935959;29;20469;-81
2021/12/22 02:07:33;;;;;;;13.20;7.72;;;-6.10;99.90;;;;;;4941152;29;20031;-78
2021/12/22 02:10:12;;;;;;;19.00;12.07;;;-6.10;99.90;;;;;;4949269;29;20032;-77
2021/12/22 02:12:46;;;;;;;16.23;9.18;;;-6.00;99.90;;;;;;4934247;29;20043;-78
2021/12/22 02:15:12;;;;;;;8.75;7.72;;;-6.00;99.90;;;;;;4944069;29;20052;-78
2021/12/22 02:17:40;;;;;;;11.80;8.18;;;-6.00;99.90;;;;;;4936068;29;20474;-78
2021/12/22 02:20:08;;;;;;;13.73;7.30;;;-6.00;99.90;;;;;;4935733;29;20036;-82
2021/12/22 02:22:35;;;;;;;7.30;6.30;;;-6.10;99.90;;;;;;4935458;29;20035;-77
2021/12/22 02:25:08;;;;;;;12.40;7.28;;;-6.20;99.90;;;;;;4946951;29;20473;-80
2021/12/22 02:27:55;;;;;;;11.20;7.90;;;-6.20;99.90;;;;;;4926933;29;20042;-78
2021/12/22 02:30:27;;;;;;;9.27;7.30;;;-6.20;99.90;;;;;;4955544;29;20396;-78
2021/12/22 02:35:53;;;;;;;7.45;6.55;;;-6.10;99.90;;;;;;4949545;29;20043;-78
2021/12/22 02:38:17;;;;;;;8.82;6.60;;;-6.20;99.90;;;;;;4956502;29;20054;-78
2021/12/22 02:40:47;;;;;;;12.05;7.20;;;-6.30;99.90;;;;;;4938603;29;20031;-77
2021/12/22 02:43:19;;;;;;;9.45;7.25;;;-6.20;99.90;;;;;;4919864;29;20035;-78
2021/12/22 02:45:46;;;;;;;9.10;7.05;;;-6.30;99.90;;;;;;4936142;29;20042;-78
2021/12/22 02:48:13;;;;;;;11.43;7.07;;;-6.20;99.90;;;;;;4918018;29;20047;-79
2021/12/22 02:50:40;;;;;;;9.55;7.20;;;-6.30;99.90;;;;;;4945670;29;20044;-78
2021/12/22 02:53:13;;;;;;;17.45;7.80;;;-6.20;99.90;;;;;;4918617;29;20401;-82
2021/12/22 02:55:57;;;;;;;6.50;5.80;;;-6.20;99.90;;;;;;4954564;29;20047;-78
2021/12/22 02:58:37;;;;;;;13.18;6.60;;;-6.30;99.90;;;;;;4935005;29;20408;-78
2021/12/22 03:01:29;;;;;;;10.32;6.30;;;-6.40;99.90;;;;;;4935789;29;20074;-78
2021/12/22 03:04:08;;;;;;;9.10;6.18;;;-6.50;99.90;;;;;;4935682;29;20465;-78
2021/12/22 03:09:18;;;;;;;11.07;8.25;;;-6.50;99.90;;;;;;4936268;29;20039;-78
2021/12/22 03:11:46;;;;;;;11.45;7.65;;;-6.60;99.90;;;;;;4925384;29;20036;-78
2021/12/22 03:14:13;;;;;;;7.32;5.97;;;-6.60;99.90;;;;;;4953591;29;20035;-78
2021/12/22 03:16:43;;;;;;;8.55;6.20;;;-6.70;99.90;;;;;;4936210;29;20481;-78
2021/12/22 03:19:14;;;;;;;9.20;7.32;;;-6.70;99.90;;;;;;4953748;29;20054;-80
2021/12/22 03:21:41;;;;;;;;;;;-6.60;99.90;;;;;;4954192;29;20035;-78
2021/12/22 03:24:09;;;;;;;7.68;5.60;;;-6.70;99.90;;;;;;4953108;29;19918;-81
2021/12/22 03:26:41;;;;;;;9.40;6.80;;;-6.70;99.90;;;;;;4953469;29;20043;-79
2021/12/22 03:29:18;;;;;;;16.13;7.07;;;-6.70;99.90;;;;;;4935224;29;20043;-81
2021/12/22 03:31:46;;;;;;;8.70;6.75;;;-6.70;99.90;;;;;;4934905;29;20031;-77
2021/12/22 03:34:13;;;;;;;8.05;6.95;;;-6.60;99.90;;;;;;4934116;29;20035;-78
2021/12/22 03:36:42;;;;;;;12.40;6.97;;;-6.70;99.90;;;;;;4934943;29;20055;-78
2021/12/22 03:39:10;;;;;;;9.77;6.85;;;-6.80;99.90;;;;;;4946528;29;20031;-81
2021/12/22 03:41:37;;;;;;;11.88;7.00;;;-6.80;99.90;;;;;;4943938;29;20046;-78
2021/12/22 03:44:05;;;;;;;12.32;7.35;;;-6.70;99.90;;;;;;4955565;28;20035;-78
2021/12/22 03:46:31;;;;;;;14.57;8.52;;;-6.70;99.90;;;;;;4921915;29;20044;-78
2021/12/22 03:48:58;;;;;;;9.35;6.30;;;-6.70;99.90;;;;;;4938726;29;20480;-78
2021/12/22 03:51:26;;;;;;;13.18;9.38;;;-6.70;99.90;;;;;;4944397;29;20058;-78
2021/12/22 03:53:53;;;;;;;10.57;7.70;;;-6.80;99.90;;;;;;4957009;29;20031;-78
2021/12/22 03:56:19;;;;;;;8.07;6.97;;;-7.00;99.90;;;;;;4945862;29;20043;-78
2021/12/22 03:58:46;;;;;;;12.75;7.95;;;-7.10;99.90;;;;;;4938539;29;20032;-78
2021/12/22 04:01:12;;;;;;;8.15;7.35;;;-7.00;99.90;;;;;;4920663;29;20043;-78
2021/12/22 04:03:40;;;;;;;11.75;7.93;;;-7.00;99.90;;;;;;4948205;29;20054;-78
2021/12/22 04:06:07;;;;;;;12.80;6.82;;;-7.00;99.90;;;;;;4956490;29;20039;-80
2021/12/22 04:08:33;;;;;;;9.98;6.95;;;-7.00;99.90;;;;;;4952145;29;20031;-78
2021/12/22 04:10:59;;;;;;;7.30;6.10;;;-6.80;99.90;;;;;;4921158;29;20047;-78
2021/12/22 04:13:26;;;;;;;9.07;6.55;;;-6.80;99.90;;;;;;4938218;29;20042;-80
2021/12/22 04:15:52;;;;;;;11.02;6.50;;;-6.70;99.90;;;;;;4938502;29;20040;-78
2021/12/22 04:18:19;;;;;;;10.27;6.85;;;-6.80;99.90;;;;;;4937710;29;20032;-78
2021/12/22 04:20:45;;;;;;;10.82;7.00;;;-6.80;99.90;;;;;;4938801;29;20059;-78
2021/12/22 04:23:12;;;;;;;12.40;6.57;;;-6.70;99.90;;;;;;4937555;29;20042;-79
2021/12/22 04:25:38;;;;;;;10.43;6.85;;;-6.90;99.90;;;;;;4937568;29;20048;-78
2021/12/22 04:28:09;;;;;;;11.50;7.75;;;-6.90;99.90;;;;;;4938788;29;20043;-78
2021/12/22 04:30:41;;;;;;;8.33;6.67;;;-6.90;99.90;;;;;;4922335;29;20056;-78
2021/12/22 04:33:07;;;;;;;12.88;6.63;;;-7.00;99.90;;;;;;4956461;29;20050;-78
2021/12/22 04:35:34;;;;;;;10.48;6.30;;;-7.10;99.90;;;;;;4938869;29;20050;-79
2021/12/22 04:38:01;;;;;;;11.82;7.10;;;-7.10;99.90;;;;;;4938025;29;20038;-79
2021/12/22 04:40:27;;;;;;;11.93;7.63;;;-7.20;99.90;;;;;;4937482;29;20031;-79
2021/12/22 04:42:53;;;;;;;8.38;7.10;;;-7.20;99.90;;;;;;4952193;29;20464;-78
2021/12/22 04:45:20;;;;;;;9.40;6.85;;;-7.20;99.90;;;;;;4954081;29;20043;-78
2021/12/22 04:47:47;;;;;;;8.80;6.93;;;-7.10;99.90;;;;;;4937461;29;20032;-78
2021/12/22 04:50:17;;;;;;;11.82;7.70;;;-7.10;99.90;;;;;;4937875;29;20047;-79
2021/12/22 04:52:58;;;;;;;10.23;7.78;;;-7.10;99.90;;;;;;4938030;29;20040;-78
2021/12/22 04:55:27;;;;;;;10.18;6.93;;;-7.10;99.90;;;;;;4953891;28;20047;-79
2021/12/22 04:57:54;;;;;;;7.32;6.00;;;-7.20;99.90;;;;;;4942755;29;20066;-79
2021/12/22 05:00:22;;;;;;;11.10;6.53;;;-7.20;99.90;;;;;;4944418;29;20031;-78
2021/12/22 05:02:49;;;;;;;10.13;6.82;;;-7.10;99.90;;;;;;4936472;29;20034;-78
2021/12/22 05:05:15;;;;;;;8.25;6.28;;;-7.20;99.90;;;;;;4949637;29;20042;-78
2021/12/22 05:07:43;;;;;;;13.50;6.57;;;-7.40;99.90;;;;;;4942113;29;20039;-79
2021/12/22 05:10:09;;;;;;;8.57;5.05;;;-7.40;99.90;;;;;;4939813;29;20035;-80
2021/12/22 05:12:36;;;;;;;11.05;6.32;;;-7.40;99.90;;;;;;4937874;29;20038;-78
2021/12/22 05:15:04;;;;;;;13.18;7.07;;;-7.40;99.90;;;;;;4920696;29;20042;-78
2021/12/22 05:20:13;;;;;;;10.35;6.25;;;-7.20;99.90;;;;;;4931417;29;20035;-80
2021/12/22 05:22:39;;;;;;;12.15;6.70;;;-7.30;99.90;;;;;;4955814;29;20035;-77
2021/12/22 05:25:08;;;;;;;8.90;6.70;;;-7.40;99.90;;;;;;4949866;29;20066;-78
2021/12/22 05:27:35;;;;;;;10.30;8.45;;;-7.20;99.90;;;;;;4936067;29;20043;-77
2021/12/22 05:30:03;;;;;;;16.23;7.95;;;-7.30;99.90;;;;;;4927068;29;20044;-77
2021/12/22 05:32:31;;;;;;;15.88;9.85;;;-7.40;99.90;;;;;;4933301;29;20039;-77
2021/12/22 05:35:04;;;;;;;47.03;28.10;;;-7.30;99.90;;;;;;4931143;29;20039;-77
2021/12/22 05:37:31;;;;;;;57.40;36.42;;;-7.30;99.90;;;;;;4930028;29;20051;-77
2021/12/22 05:39:57;;;;;;;74.88;40.53;;;-7.50;99.90;;;;;;4936370;29;20032;-77
2021/12/22 05:42:24;;;;;;;68.22;44.22;;;-7.50;99.90;;;;;;4936157;29;20035;-77
2021/12/22 05:44:50;;;;;;;68.90;37.75;;;-7.50;99.90;;;;;;4926204;29;20038;-77
2021/12/22 05:47:17;;;;;;;46.22;28.42;;;-7.40;99.90;;;;;;4950946;29;20038;-77
2021/12/22 05:49:43;;;;;;;39.50;23.63;;;-7.40;99.90;;;;;;4935834;29;20047;-78
2021/12/22 05:52:11;;;;;;;30.80;19.17;;;-7.40;99.90;;;;;;4919651;29;20046;-79
2021/12/22 05:54:37;;;;;;;38.75;17.85;;;-7.50;99.90;;;;;;4935846;29;20031;-77
2021/12/22 05:57:04;;;;;;;16.25;12.15;;;-7.50;99.90;;;;;;4936405;29;20047;-77
2021/12/22 05:59:30;;;;;;;16.00;8.85;;;-7.60;99.90;;;;;;4940303;29;20189;-77
2021/12/22 06:01:56;;;;;;;10.75;6.55;;;-7.60;99.90;;;;;;4954305;29;20031;-77
2021/12/22 06:04:23;;;;;;;10.38;7.60;;;-7.60;99.90;;;;;;4939593;29;20051;-77
2021/12/22 06:06:49;;;;;;;11.38;6.80;;;-7.60;99.90;;;;;;4936194;28;20040;-78
2021/12/22 06:09:15;;;;;;;12.35;6.72;;;-7.70;99.90;;;;;;4944664;29;20046;-77
2021/12/22 06:11:41;;;;;;;14.25;7.88;;;-7.80;99.90;;;;;;4938875;29;20044;-80
2021/12/22 06:14:08;;;;;;;11.13;7.13;;;-7.80;99.90;;;;;;4935841;29;20043;-77
2021/12/22 06:16:34;;;;;;;10.48;7.55;;;-7.80;99.90;;;;;;4935815;29;20040;-78
2021/12/22 06:19:04;;;;;;;11.40;8.50;;;-7.80;99.90;;;;;;4936085;29;20480;-78
2021/12/22 06:21:31;;;;;;;18.98;10.80;;;-7.80;99.90;;;;;;4935341;29;20235;-78
2021/12/22 06:23:57;;;;;;;11.35;9.10;;;-7.80;99.90;;;;;;4937435;29;20038;-77
2021/12/22 06:26:24;;;;;;;8.20;7.30;;;-7.70;99.90;;;;;;4949820;29;20043;-78
2021/12/22 06:28:50;;;;;;;11.15;7.20;;;-7.70;99.90;;;;;;4935246;29;20032;-78
2021/12/22 06:31:17;;;;;;;12.23;6.97;;;-7.60;99.90;;;;;;4931654;29;20043;-78
2021/12/22 06:33:44;;;;;;;10.90;7.25;;;-7.60;99.90;;;;;;4936006;29;20028;-77
2021/12/22 06:36:10;;;;;;;9.63;7.07;;;-7.50;99.90;;;;;;4935724;29;20047;-80
2021/12/22 06:38:38;;;;;;;13.55;6.88;;;-7.50;99.90;;;;;;4935411;29;20039;-77
2021/12/22 06:41:06;;;;;;;9.38;6.57;;;-7.50;99.90;;;;;;4935631;29;20473;-77
2021/12/22 06:43:32;;;;;;;13.07;7.65;;;-7.60;99.90;;;;;;4935566;29;20116;-79
2021/12/22 06:45:58;;;;;;;12.70;6.57;;;-7.70;99.90;;;;;;4935511;29;20515;-78
2021/12/22 06:48:25;;;;;;;11.55;6.32;;;-7.80;99.90;;;;;;4951800;29;20035;-77
2021/12/22 06:50:51;;;;;;;14.27;6.63;;;-7.80;99.90;;;;;;4940940;29;20050;-77
2021/12/22 06:53:17;;;;;;;10.23;7.32;;;-7.80;99.90;;;;;;4935356;29;20035;-77
2021/12/22 06:55:43;;;;;;;11.40;7.55;;;-7.80;99.90;;;;;;4921500;29;20051;-77
2021/12/22 06:58:09;;;;;;;15.05;6.78;;;-7.70;99.90;;;;;;4927202;29;20120;-77
2021/12/22 07:00:36;;;;;;;16.30;7.85;;;-7.50;99.90;;;;;;4947905;29;20035;-77
2021/12/22 07:03:04;;;;;;;12.30;9.13;;;-7.50;99.90;;;;;;4939212;29;20032;-77
2021/12/22 07:05:32;;;;;;;11.52;7.68;;;-7.60;99.90;;;;;;4934403;29;20028;-77
2021/12/22 07:07:58;;;;;;;9.90;6.72;;;-7.70;99.90;;;;;;4922491;29;20048;-77
2021/12/22 07:10:25;;;;;;;9.00;6.53;;;-7.80;99.90;;;;;;4934926;29;20028;-77
2021/12/22 07:12:51;;;;;;;14.77;7.53;;;-7.80;99.90;;;;;;4944066;29;20031;-77
2021/12/22 07:15:18;;;;;;;15.40;13.27;;;-7.90;99.90;;;;;;4934681;29;20035;-77
2021/12/22 07:17:48;;;;;;;19.05;9.65;;;-7.90;99.90;;;;;;4931406;29;20047;-78
2021/12/22 07:20:14;;;;;;;13.20;9.90;;;-7.90;99.90;;;;;;4927352;29;20040;-81
2021/12/22 07:22:41;;;;;;;12.90;9.55;;;-7.80;99.90;;;;;;4939611;29;20032;-78
2021/12/22 07:25:09;;;;;;;17.08;9.50;;;-7.70;99.90;;;;;;4939275;29;20138;-78
2021/12/22 07:27:36;;;;;;;13.30;9.55;;;-7.70;99.90;;;;;;4938580;29;20058;-78
2021/12/22 07:30:04;;;;;;;9.35;8.35;;;-7.70;99.90;;;;;;4951226;29;20388;-78
2021/12/22 07:32:30;;;;;;;12.70;7.95;;;-7.70;99.90;;;;;;4951379;29;20038;-78
2021/12/22 07:35:09;;;;;;;9.93;7.35;;;-7.70;99.90;;;;;;4949071;29;20023;-78
2021/12/22 07:37:47;;;;;;;13.25;7.00;;;-7.70;99.90;;;;;;4934351;29;20492;-78
2021/12/22 07:40:16;;;;;;;9.23;6.15;;;-7.70;99.90;;;;;;4948762;29;20042;-79
2021/12/22 07:42:43;;;;;;;10.88;6.68;;;-7.60;99.90;;;;;;4946591;29;20020;-78
2021/12/22 07:45:11;;;;;;;10.93;7.18;;;-7.60;99.90;;;;;;4947403;29;20027;-78
2021/12/22 07:47:38;;;;;;;12.93;8.50;;;-7.50;99.90;;;;;;4948275;29;20370;-77
2021/12/22 07:50:06;;;;;;;33.85;24.88;;;-7.50;99.90;;;;;;4950089;29;20051;-79
2021/12/22 07:52:32;;;;;;;31.25;20.10;;;-7.60;99.90;;;;;;4949612;29;20023;-77
2021/12/22 07:54:59;;;;;;;37.78;25.83;;;-7.60;99.90;;;;;;4938363;29;20051;-78
2021/12/22 07:57:26;;;;;;;40.70;27.80;;;-7.60;99.90;;;;;;4946775;29;20050;-77
2021/12/22 07:59:52;;;;;;;27.75;17.88;;;-7.50;99.90;;;;;;4949386;29;20039;-79
2021/12/22 08:02:18;;;;;;;23.15;13.65;;;-7.50;99.90;;;;;;4947368;29;20042;-78
2021/12/22 08:04:44;;;;;;;21.95;11.65;;;-7.40;99.90;;;;;;4948954;29;20047;-77
2021/12/22 08:07:11;;;;;;;15.40;9.88;;;-7.40;99.90;;;;;;4946400;29;20046;-78
2021/12/22 08:09:37;;;;;;;11.15;9.43;;;-7.30;99.90;;;;;;4948671;29;20384;-78
2021/12/22 08:12:04;;;;;;;21.88;11.02;;;-7.20;99.90;;;;;;4949967;29;20046;-78
2021/12/22 08:14:36;;;;;;;12.65;9.88;;;-7.20;99.90;;;;;;4948698;29;20039;-77
2021/12/22 08:17:03;;;;;;;14.90;8.13;;;-7.20;99.90;;;;;;4931936;29;20050;-78
2021/12/22 08:19:30;;;;;;;13.40;11.50;;;-7.10;99.90;;;;;;4948176;29;20404;-78
2021/12/22 08:21:56;;;;;;;18.00;11.10;;;-7.00;99.90;;;;;;4946239;29;20043;-79
2021/12/22 08:24:23;;;;;;;14.30;11.18;;;-6.90;99.90;;;;;;4948253;29;20030;-79
2021/12/22 08:26:50;;;;;;;10.73;9.57;;;-6.80;99.90;;;;;;4948891;29;20051;-78
2021/12/22 08:29:17;;;;;;;18.88;9.43;;;-6.70;99.90;;;;;;4929198;29;20042;-78
2021/12/22 08:31:43;;;;;;;12.85;8.32;;;-6.50;99.90;;;;;;4946903;29;20035;-78
2021/12/22 08:34:11;;;;;;;13.60;10.20;;;-6.30;99.90;;;;;;4948186;29;20028;-78
2021/12/22 08:39:24;;;;;;;10.90;8.82;;;-6.10;99.90;;;;;;4951352;29;20449;-77
2021/12/22 08:41:51;;;;;;;13.88;8.60;;;-6.00;99.90;;;;;;4948120;29;20062;-76
2021/12/22 08:44:19;;;;;;;12.55;8.77;;;-5.90;99.90;;;;;;4952451;29;20477;-76
2021/12/22 08:46:49;;;;;;;11.15;8.98;;;-5.70;99.90;;;;;;4950611;29;20039;-78
2021/12/22 08:49:17;;;;;;;12.77;8.95;;;-5.60;99.90;;;;;;4937248;29;20051;-77
2021/12/22 08:51:44;;;;;;;10.88;9.77;;;-5.60;99.90;;;;;;4937951;29;20031;-77
2021/12/22 08:54:10;;;;;;;16.13;9.80;;;-5.40;99.90;;;;;;4937950;29;20566;-76
2021/12/22 08:56:37;;;;;;;13.32;10.27;;;-5.20;99.90;;;;;;4937830;29;20043;-77
2021/12/22 08:59:05;;;;;;;12.27;10.38;;;-4.90;99.90;;;;;;4947522;29;20046;-76
2021/12/22 09:01:31;;;;;;;11.85;10.55;;;-4.70;99.90;;;;;;4940602;29;20031;-76
2021/12/22 09:03:58;;;;;;;16.10;12.50;;;-4.50;99.90;;;;;;4948597;29;20035;-77
2021/12/22 09:06:25;;;;;;;13.63;12.18;;;-4.30;99.90;;;;;;4943964;29;20043;-77
2021/12/22 09:08:52;;;;;;;13.55;12.13;;;-4.20;99.90;;;;;;4948750;29;20027;-77
2021/12/22 09:11:19;;;;;;;13.52;11.75;;;-4.00;99.90;;;;;;4947308;29;20457;-77
2021/12/22 09:13:46;;;;;;;11.63;10.38;;;-3.90;99.90;;;;;;4946462;29;20028;-77
2021/12/22 09:16:13;;;;;;;23.05;12.05;;;-3.80;99.90;;;;;;4953576;29;20465;-76
2021/12/22 09:18:40;;;;;;;24.63;11.18;;;-3.70;99.90;;;;;;4937700;29;20039;-76
2021/12/22 09:21:08;;;;;;;16.13;11.75;;;-3.60;99.90;;;;;;4946233;29;20039;-77
2021/12/22 09:23:35;;;;;;;14.75;11.73;;;-3.50;99.90;;;;;;4955468;29;20039;-77
2021/12/22 09:26:01;;;;;;;14.55;10.98;;;-3.30;99.90;;;;;;4947980;29;20054;-77
2021/12/22 09:28:27;;;;;;;12.77;11.02;;;-3.20;99.90;;;;;;4923710;29;20035;-77
2021/12/22 09:30:53;;;;;;;15.63;11.75;;;-3.00;99.90;;;;;;4942960;29;20036;-77
2021/12/22 09:33:20;;;;;;;15.10;11.82;;;-2.90;99.90;;;;;;4940529;29;20390;-78
2021/12/22 09:35:49;;;;;;;22.13;13.13;;;-2.80;99.90;;;;;;4949155;29;20044;-79
2021/12/22 09:38:16;;;;;;;13.52;11.85;;;-2.70;99.90;;;;;;4937067;29;20485;-79
2021/12/22 09:40:42;;;;;;;12.70;11.38;;;-2.60;99.90;;;;;;4936410;29;20035;-79
2021/12/22 09:43:09;;;;;;;19.08;13.02;;;-2.40;99.90;;;;;;4919627;29;20077;-79
2021/12/22 09:45:41;;;;;;;16.25;11.80;;;-2.40;99.90;;;;;;4955453;29;20040;-78
2021/12/22 09:50:49;;;;;;;13.48;11.05;;;-2.10;99.90;;;;;;4952566;29;20054;-78
2021/12/22 09:53:21;;;;;;;16.98;13.55;;;-2.00;99.90;;;;;;4937121;29;20461;-81
2021/12/22 09:55:49;;;;;;;18.35;13.00;;;-1.90;99.90;;;;;;4944228;29;20051;-79
2021/12/22 09:58:16;;;;;;;25.67;14.98;;;-1.80;99.90;;;;;;4941054;29;20036;-81
2021/12/22 10:00:44;;;;;;;12.98;11.65;;;-1.60;99.90;;;;;;4936215;29;20035;-78
2021/12/22 10:03:12;;;;;;;16.35;12.30;;;-1.60;99.90;;;;;;4936299;29;20054;-78
2021/12/22 10:05:41;;;;;;;14.60;12.88;;;-1.50;99.90;;;;;;4935936;29;20038;-78
2021/12/22 10:08:16;;;;;;;12.73;11.45;;;-1.30;99.90;;;;;;4936671;29;20393;-78
2021/12/22 10:10:50;;;;;;;19.80;11.80;;;-1.20;99.90;;;;;;4945183;29;20378;-79
2021/12/22 10:13:21;;;;;;;19.33;10.68;;;-1.10;99.90;;;;;;4948187;29;20035;-79
2021/12/22 10:15:48;;;;;;;16.17;11.63;;;-1.00;99.90;;;;;;4919124;29;20054;-79
2021/12/22 10:18:24;;;;;;;18.10;12.98;;;-1.00;99.90;;;;;;4935634;29;20048;-79
2021/12/22 10:20:53;;;;;;;15.25;13.35;;;-1.00;99.90;;;;;;4936601;29;20032;-79
2021/12/22 10:23:27;;;;;;;17.60;11.55;;;-0.90;99.90;;;;;;4918266;29;20164;-79
2021/12/22 10:25:55;;;;;;;11.82;10.75;;;-0.90;99.90;;;;;;4935775;29;20039;-78
2021/12/22 10:28:22;;;;;;;17.08;11.05;;;-0.90;99.90;;;;;;4953928;29;20066;-79
2021/12/22 10:30:50;;;;;;;18.25;12.30;;;-0.80;99.90;;;;;;4938931;29;20047;-79
2021/12/22 10:33:19;;;;;;;20.92;14.52;;;-0.70;99.90;;;;;;4918967;29;20065;-81
2021/12/22 10:35:56;;;;;;;14.10;12.75;;;-0.70;99.90;;;;;;4947061;29;20050;-78
2021/12/22 10:38:25;;;;;;;14.38;12.13;;;-0.60;99.90;;;;;;4947397;29;20504;-77
2021/12/22 10:41:04;;;;;;;18.23;14.57;;;-0.50;99.90;;;;;;4942140;29;20489;-78
2021/12/22 10:43:33;;;;;;;22.33;14.85;;;-0.40;99.90;;;;;;4950015;29;20035;-78
2021/12/22 10:46:04;;;;;;;24.85;16.13;;;-0.40;99.90;;;;;;4933596;29;20035;-77
2021/12/22 10:51:30;;;;;;;24.93;16.30;;;-0.10;98.90;;;;;;4935736;29;20051;-78
2021/12/22 10:53:59;;;;;;;31.77;15.68;;;0.00;97.80;;;;;;4936142;29;20489;-78
2021/12/22 10:56:32;;;;;;;24.92;17.05;;;0.10;97.80;;;;;;4934944;29;20031;-78
2021/12/22 10:59:02;;;;;;;17.75;15.95;;;0.10;95.90;;;;;;4935166;29;20048;-78
2021/12/22 11:01:29;;;;;;;20.48;17.17;;;0.30;94.80;;;;;;4935014;29;20477;-79
2021/12/22 11:04:03;;;;;;;23.77;15.68;;;0.40;93.70;;;;;;4935460;29;20385;-78
2021/12/22 11:06:34;;;;;;;19.15;17.00;;;0.50;92.20;;;;;;4942502;29;20048;-78
2021/12/22 11:09:08;;;;;;;20.55;17.25;;;0.50;92.30;;;;;;4953654;29;20034;-78
2021/12/22 11:11:36;;;;;;;18.55;16.02;;;0.60;91.20;;;;;;4938646;29;20032;-78
2021/12/22 11:14:12;;;;;;;19.48;15.43;;;0.70;90.70;;;;;;4950873;29;20416;-78
2021/12/22 11:16:57;;;;;;;18.15;15.73;;;0.80;90.70;;;;;;4939646;29;20051;-78
2021/12/22 11:19:25;;;;;;;17.58;15.80;;;0.90;90.20;;;;;;4934238;29;20490;-79
2021/12/22 11:22:10;;;;;;;21.25;16.30;;;0.90;89.00;;;;;;4954693;29;20469;-76
2021/12/22 11:24:44;;;;;;;20.13;15.82;;;0.90;89.30;;;;;;4935392;29;20445;-77
2021/12/22 11:27:13;;;;;;;17.52;15.65;;;0.90;88.50;;;;;;4935822;29;20036;-77
2021/12/22 11:29:43;;;;;;;19.35;16.13;;;0.90;89.00;;;;;;4934801;29;20032;-77
2021/12/22 11:32:13;;;;;;;18.45;16.15;;;1.00;88.50;;;;;;4949805;29;20043;-78
2021/12/22 11:34:43;;;;;;;23.77;16.27;;;1.00;89.10;;;;;;4935148;29;20032;-77
2021/12/22 11:37:11;;;;;;;22.73;19.70;;;1.10;87.50;;;;;;4917531;29;20052;-77
2021/12/22 11:39:37;;;;;;;22.90;16.88;;;1.10;87.80;;;;;;4935077;29;20186;-77
2021/12/22 11:42:07;;;;;;;29.50;23.40;;;1.10;86.20;;;;;;4918632;29;20032;-77
2021/12/22 11:44:35;;;;;;;23.85;19.10;;;1.10;85.90;;;;;;4935002;29;20040;-77
2021/12/22 11:47:07;;;;;;;24.75;21.05;;;1.10;85.70;;;;;;4953140;29;20043;-77
2021/12/22 11:49:37;;;;;;;17.08;15.27;;;1.10;85.50;;;;;;4953068;29;20047;-77
2021/12/22 11:52:45;;;;;;;26.90;17.42;;;1.00;85.70;;;;;;4937807;29;20040;-76
2021/12/22 11:55:13;;;;;;;26.08;18.85;;;1.00;85.70;;;;;;4943977;29;20039;-77
2021/12/22 11:57:40;;;;;;;17.88;15.75;;;1.00;86.90;;;;;;4934951;29;20059;-77
2021/12/22 12:00:31;;;;;;;69.20;55.33;;;1.00;86.10;;;;;;4935805;29;20055;-77
2021/12/22 12:03:18;;;;;;;37.47;31.15;;;1.10;86.70;;;;;;4940459;29;20047;-77
2021/12/22 12:06:02;;;;;;;25.70;16.63;;;1.10;87.40;;;;;;4937919;29;20035;-77
2021/12/22 12:09:08;;;;;;;19.58;17.52;;;1.20;85.50;;;;;;4938830;29;20067;-77
2021/12/22 12:11:54;;;;;;;16.67;14.75;;;1.30;83.80;;;;;;4938456;29;20027;-77
2021/12/22 12:23:32;;;;;;;24.00;15.55;;;1.50;82.00;;;;;;4938361;29;20031;-76
2021/12/22 12:26:04;;;;;;;17.27;15.48;;;1.60;81.30;;;;;;4939753;29;20043;-77
2021/12/22 12:28:44;;;;;;;15.65;13.70;;;1.70;80.60;;;;;;4939092;29;20035;-76
2021/12/22 12:31:10;;;;;;;15.32;13.73;;;1.70;80.50;;;;;;4939735;29;20488;-77
2021/12/22 12:33:42;;;;;;;17.80;14.75;;;1.70;79.00;;;;;;4937434;29;20035;-77
2021/12/22 12:36:12;;;;;;;20.17;15.27;;;1.70;78.70;;;;;;4945591;29;20035;-77
2021/12/22 12:38:49;;;;;;;14.50;12.93;;;1.70;78.10;;;;;;4955985;29;20046;-77
2021/12/22 12:41:20;;;;;;;18.33;15.00;;;1.70;77.00;;;;;;4938233;29;20039;-77
2021/12/22 12:43:53;;;;;;;11.63;10.60;;;1.70;77.20;;;;;;4951509;29;20043;-76
2021/12/22 12:46:19;;;;;;;18.13;14.60;;;1.80;78.10;;;;;;4937911;29;20469;-78
2021/12/22 12:48:54;;;;;;;15.50;13.85;;;1.90;77.90;;;;;;4955512;29;20038;-77
2021/12/22 12:51:30;;;;;;;15.15;12.77;;;1.90;76.80;;;;;;4948970;29;20031;-78
2021/12/22 12:54:06;;;;;;;17.73;14.43;;;1.80;76.10;;;;;;4957398;29;20038;-77
2021/12/22 12:56:41;;;;;;;16.48;13.23;;;1.80;76.80;;;;;;4937119;29;20039;-77
2021/12/22 12:59:10;;;;;;;16.60;13.88;;;1.90;76.40;;;;;;4938215;29;20050;-77
2021/12/22 13:01:50;;;;;;;15.77;14.13;;;1.90;76.20;;;;;;4940814;29;20039;-77
2021/12/22 13:04:29;;;;;;;17.77;13.60;;;1.90;76.70;;;;;;4946355;29;20035;-77
2021/12/22 13:07:08;;;;;;;15.20;13.73;;;1.80;76.20;;;;;;4940944;29;20035;-77
2021/12/22 13:09:42;;;;;;;17.83;16.00;;;1.80;76.70;;;;;;4950395;29;20465;-77
2021/12/22 13:12:16;;;;;;;15.70;14.10;;;1.90;77.50;;;;;;4938383;29;20028;-77
2021/12/22 13:17:45;;;;;;;14.07;10.97;;;1.80;76.80;;;;;;4921896;29;20047;-77
2021/12/22 13:20:15;;;;;;;16.20;14.63;;;1.80;76.90;;;;;;4952337;29;20042;-77
2021/12/22 13:22:46;;;;;;;22.27;13.52;;;1.80;76.70;;;;;;4937489;29;20040;-77